sensor_id;sensor_type;location;lat;lon;timestamp;P1;durP1;ratioP1;P2;durP2;ratioP2
10839;SDS011;5473;42.706;23.328;2023-02-28T00:01:34;0.60;;;0.60;;
10839;SDS011;5473;42.706;23.328;2023-02-28T00:04:02;0.60;;;0.60;;
10839;SDS011;5473;42.706;23.328;2023-02-28T00:06:29;0.60;;;0.60;;
10839;SDS011;5473;42.706;23.328;2023-02-28T00:08:56;0.60;;;0.60;;
10839;SDS011;5473;42.706;23.328;2023-02-28T00:11:23;0.60;;;0.60;;
10839;SDS011;5473;42.706;23.328;2023-02-28T00:13:50;0.60;;;0.60;;
10839;SDS011;5473;42.706;23.328;2023-02-28T00:16:17;0.60;;;0.60;;
10839;SDS011;5473;42.706;23.328;2023-02-28T00:18:45;0.60;;;0.60;;
10839;SDS011;5473;42.706;23.328;2023-02-28T00:21:14;0.50;;;0.50;;
10839;SDS011;5473;42.706;23.328;2023-02-28T00:23:42;0.60;;;0.60;;
10839;SDS011;5473;42.706;23.328;2023-02-28T00:26:09;0.60;;;0.60;;
10839;SDS011;5473;42.706;23.328;2023-02-28T00:28:35;0.50;;;0.50;;
10839;SDS011;5473;42.706;23.328;2023-02-28T00:31:02;0.60;;;0.60;;
10839;SDS011;5473;42.706;23.328;2023-02-28T00:33:29;0.60;;;0.60;;
10839;SDS011;5473;42.706;23.328;2023-02-28T00:36:05;0.60;;;0.60;;
10839;SDS011;5473;42.706;23.328;2023-02-28T00:38:35;0.60;;;0.60;;
10839;SDS011;5473;42.706;23.328;2023-02-28T00:41:01;0.60;;;0.60;;
10839;SDS011;5473;42.706;23.328;2023-02-28T00:43:30;0.60;;;0.60;;
10839;SDS011;5473;42.706;23.328;2023-02-28T00:45:58;0.60;;;0.60;;
10839;SDS011;5473;42.706;23.328;2023-02-28T00:48:24;0.60;;;0.60;;
10839;SDS011;5473;42.706;23.328;2023-02-28T00:50:51;0.60;;;0.60;;
10839;SDS011;5473;42.706;23.328;2023-02-28T00:53:18;0.60;;;0.60;;
10839;SDS011;5473;42.706;23.328;2023-02-28T00:55:46;0.60;;;0.60;;
10839;SDS011;5473;42.706;23.328;2023-02-28T00:58:13;0.60;;;0.60;;
10839;SDS011;5473;42.706;23.328;2023-02-28T01:00:39;0.60;;;0.60;;
10839;SDS011;5473;42.706;23.328;2023-02-28T01:03:06;0.50;;;0.50;;
10839;SDS011;5473;42.706;23.328;2023-02-28T01:05:33;0.60;;;0.60;;
10839;SDS011;5473;42.706;23.328;2023-02-28T01:08:00;0.60;;;0.60;;
10839;SDS011;5473;42.706;23.328;2023-02-28T01:10:27;0.60;;;0.60;;
10839;SDS011;5473;42.706;23.328;2023-02-28T01:12:57;0.50;;;0.50;;
10839;SDS011;5473;42.706;23.328;2023-02-28T01:15:24;0.60;;;0.60;;
10839;SDS011;5473;42.706;23.328;2023-02-28T01:17:51;0.60;;;0.60;;
10839;SDS011;5473;42.706;23.328;2023-02-28T01:20:17;0.60;;;0.60;;
10839;SDS011;5473;42.706;23.328;2023-02-28T01:22:44;0.60;;;0.60;;
10839;SDS011;5473;42.706;23.328;2023-02-28T01:25:12;0.53;;;0.53;;
10839;SDS011;5473;42.706;23.328;2023-02-28T01:27:39;0.60;;;0.60;;
10839;SDS011;5473;42.706;23.328;2023-02-28T01:30:08;0.60;;;0.60;;
10839;SDS011;5473;42.706;23.328;2023-02-28T01:32:35;0.60;;;0.60;;
10839;SDS011;5473;42.706;23.328;2023-02-28T01:35:02;0.60;;;0.60;;
10839;SDS011;5473;42.706;23.328;2023-02-28T01:37:29;0.60;;;0.60;;
10839;SDS011;5473;42.706;23.328;2023-02-28T01:39:56;0.50;;;0.50;;
10839;SDS011;5473;42.706;23.328;2023-02-28T01:42:22;0.53;;;0.53;;
10839;SDS011;5473;42.706;23.328;2023-02-28T01:45:00;0.60;;;0.60;;
10839;SDS011;5473;42.706;23.328;2023-02-28T01:47:32;0.60;;;0.60;;
10839;SDS011;5473;42.706;23.328;2023-02-28T01:50:02;0.60;;;0.60;;
10839;SDS011;5473;42.706;23.328;2023-02-28T01:52:33;0.50;;;0.50;;
10839;SDS011;5473;42.706;23.328;2023-02-28T01:55:01;0.60;;;0.60;;
10839;SDS011;5473;42.706;23.328;2023-02-28T01:57:32;0.60;;;0.60;;
10839;SDS011;5473;42.706;23.328;2023-02-28T02:00:05;0.57;;;0.57;;
10839;SDS011;5473;42.706;23.328;2023-02-28T02:02:35;0.50;;;0.50;;
10839;SDS011;5473;42.706;23.328;2023-02-28T02:05:04;0.60;;;0.60;;
10839;SDS011;5473;42.706;23.328;2023-02-28T02:07:33;0.50;;;0.50;;
10839;SDS011;5473;42.706;23.328;2023-02-28T02:10:03;0.60;;;0.60;;
10839;SDS011;5473;42.706;23.328;2023-02-28T02:12:36;0.60;;;0.60;;
10839;SDS011;5473;42.706;23.328;2023-02-28T02:15:24;0.60;;;0.60;;
10839;SDS011;5473;42.706;23.328;2023-02-28T02:18:00;0.60;;;0.60;;
10839;SDS011;5473;42.706;23.328;2023-02-28T02:20:43;0.60;;;0.60;;
10839;SDS011;5473;42.706;23.328;2023-02-28T02:29:27;0.60;;;0.60;;
10839;SDS011;5473;42.706;23.328;2023-02-28T02:32:21;0.50;;;0.50;;
10839;SDS011;5473;42.706;23.328;2023-02-28T02:35:02;0.60;;;0.60;;
10839;SDS011;5473;42.706;23.328;2023-02-28T02:37:40;0.60;;;0.60;;
10839;SDS011;5473;42.706;23.328;2023-02-28T02:40:13;0.60;;;0.60;;
10839;SDS011;5473;42.706;23.328;2023-02-28T02:42:45;0.60;;;0.60;;
10839;SDS011;5473;42.706;23.328;2023-02-28T02:45:19;0.60;;;0.60;;
10839;SDS011;5473;42.706;23.328;2023-02-28T02:47:52;0.60;;;0.60;;
10839;SDS011;5473;42.706;23.328;2023-02-28T02:50:25;0.60;;;0.60;;
10839;SDS011;5473;42.706;23.328;2023-02-28T02:52:57;0.57;;;0.57;;
10839;SDS011;5473;42.706;23.328;2023-02-28T02:55:28;0.60;;;0.60;;
10839;SDS011;5473;42.706;23.328;2023-02-28T02:57:59;0.60;;;0.60;;
10839;SDS011;5473;42.706;23.328;2023-02-28T03:00:31;0.60;;;0.60;;
10839;SDS011;5473;42.706;23.328;2023-02-28T03:03:02;0.60;;;0.60;;
10839;SDS011;5473;42.706;23.328;2023-02-28T03:05:32;0.70;;;0.70;;
10839;SDS011;5473;42.706;23.328;2023-02-28T03:08:05;0.60;;;0.60;;
10839;SDS011;5473;42.706;23.328;2023-02-28T03:10:34;0.60;;;0.60;;
10839;SDS011;5473;42.706;23.328;2023-02-28T03:16:05;0.60;;;0.60;;
10839;SDS011;5473;42.706;23.328;2023-02-28T03:18:51;0.60;;;0.60;;
10839;SDS011;5473;42.706;23.328;2023-02-28T03:21:26;0.60;;;0.60;;
10839;SDS011;5473;42.706;23.328;2023-02-28T03:24:02;0.60;;;0.60;;
10839;SDS011;5473;42.706;23.328;2023-02-28T03:26:31;0.60;;;0.60;;
10839;SDS011;5473;42.706;23.328;2023-02-28T03:29:03;0.60;;;0.60;;
10839;SDS011;5473;42.706;23.328;2023-02-28T03:31:38;0.60;;;0.60;;
10839;SDS011;5473;42.706;23.328;2023-02-28T03:34:08;0.60;;;0.60;;
10839;SDS011;5473;42.706;23.328;2023-02-28T03:36:41;0.50;;;0.50;;
10839;SDS011;5473;42.706;23.328;2023-02-28T03:39:11;0.60;;;0.60;;
10839;SDS011;5473;42.706;23.328;2023-02-28T03:41:42;0.57;;;0.57;;
10839;SDS011;5473;42.706;23.328;2023-02-28T03:44:15;0.60;;;0.60;;
10839;SDS011;5473;42.706;23.328;2023-02-28T03:46:45;0.50;;;0.50;;
10839;SDS011;5473;42.706;23.328;2023-02-28T03:49:18;0.50;;;0.50;;
10839;SDS011;5473;42.706;23.328;2023-02-28T03:51:52;0.60;;;0.60;;
10839;SDS011;5473;42.706;23.328;2023-02-28T03:54:23;0.60;;;0.60;;
10839;SDS011;5473;42.706;23.328;2023-02-28T03:56:55;0.60;;;0.60;;
10839;SDS011;5473;42.706;23.328;2023-02-28T03:59:27;0.60;;;0.60;;
10839;SDS011;5473;42.706;23.328;2023-02-28T04:01:57;0.50;;;0.50;;
10839;SDS011;5473;42.706;23.328;2023-02-28T04:04:24;0.60;;;0.60;;
10839;SDS011;5473;42.706;23.328;2023-02-28T04:06:53;0.60;;;0.60;;
10839;SDS011;5473;42.706;23.328;2023-02-28T04:09:27;0.60;;;0.60;;
10839;SDS011;5473;42.706;23.328;2023-02-28T04:11:54;0.60;;;0.60;;
10839;SDS011;5473;42.706;23.328;2023-02-28T04:14:21;0.40;;;0.40;;
10839;SDS011;5473;42.706;23.328;2023-02-28T04:16:48;0.60;;;0.60;;
10839;SDS011;5473;42.706;23.328;2023-02-28T04:19:16;0.60;;;0.60;;
10839;SDS011;5473;42.706;23.328;2023-02-28T04:21:43;0.60;;;0.60;;
10839;SDS011;5473;42.706;23.328;2023-02-28T04:24:13;0.60;;;0.60;;
10839;SDS011;5473;42.706;23.328;2023-02-28T04:26:41;0.60;;;0.60;;
10839;SDS011;5473;42.706;23.328;2023-02-28T04:29:11;0.60;;;0.60;;
10839;SDS011;5473;42.706;23.328;2023-02-28T04:31:38;0.53;;;0.53;;
10839;SDS011;5473;42.706;23.328;2023-02-28T04:34:05;0.60;;;0.60;;
10839;SDS011;5473;42.706;23.328;2023-02-28T04:36:32;0.60;;;0.60;;
10839;SDS011;5473;42.706;23.328;2023-02-28T04:38:59;0.50;;;0.50;;
10839;SDS011;5473;42.706;23.328;2023-02-28T04:41:27;0.50;;;0.50;;
10839;SDS011;5473;42.706;23.328;2023-02-28T04:43:54;0.60;;;0.60;;
10839;SDS011;5473;42.706;23.328;2023-02-28T04:46:21;0.60;;;0.60;;
10839;SDS011;5473;42.706;23.328;2023-02-28T04:48:48;0.50;;;0.50;;
10839;SDS011;5473;42.706;23.328;2023-02-28T04:51:16;0.50;;;0.50;;
10839;SDS011;5473;42.706;23.328;2023-02-28T04:53:44;0.60;;;0.60;;
10839;SDS011;5473;42.706;23.328;2023-02-28T04:56:11;0.50;;;0.50;;
10839;SDS011;5473;42.706;23.328;2023-02-28T04:58:41;0.53;;;0.53;;
10839;SDS011;5473;42.706;23.328;2023-02-28T05:01:15;0.60;;;0.60;;
10839;SDS011;5473;42.706;23.328;2023-02-28T05:03:44;0.50;;;0.50;;
10839;SDS011;5473;42.706;23.328;2023-02-28T05:06:11;0.60;;;0.60;;
10839;SDS011;5473;42.706;23.328;2023-02-28T05:08:39;0.50;;;0.50;;
10839;SDS011;5473;42.706;23.328;2023-02-28T05:11:06;0.60;;;0.60;;
10839;SDS011;5473;42.706;23.328;2023-02-28T05:13:38;0.60;;;0.60;;
10839;SDS011;5473;42.706;23.328;2023-02-28T05:16:07;0.57;;;0.57;;
10839;SDS011;5473;42.706;23.328;2023-02-28T05:18:33;0.60;;;0.60;;
10839;SDS011;5473;42.706;23.328;2023-02-28T05:21:00;0.60;;;0.60;;
10839;SDS011;5473;42.706;23.328;2023-02-28T05:23:28;0.60;;;0.60;;
10839;SDS011;5473;42.706;23.328;2023-02-28T05:25:54;0.60;;;0.60;;
10839;SDS011;5473;42.706;23.328;2023-02-28T05:28:22;0.60;;;0.60;;
10839;SDS011;5473;42.706;23.328;2023-02-28T05:30:48;0.60;;;0.60;;
10839;SDS011;5473;42.706;23.328;2023-02-28T05:33:16;0.60;;;0.60;;
10839;SDS011;5473;42.706;23.328;2023-02-28T05:35:43;0.60;;;0.60;;
10839;SDS011;5473;42.706;23.328;2023-02-28T05:38:10;0.60;;;0.60;;
10839;SDS011;5473;42.706;23.328;2023-02-28T05:40:37;0.60;;;0.60;;
10839;SDS011;5473;42.706;23.328;2023-02-28T05:43:05;0.50;;;0.50;;
10839;SDS011;5473;42.706;23.328;2023-02-28T05:45:32;0.60;;;0.60;;
10839;SDS011;5473;42.706;23.328;2023-02-28T05:47:58;0.60;;;0.60;;
10839;SDS011;5473;42.706;23.328;2023-02-28T05:50:26;0.60;;;0.60;;
10839;SDS011;5473;42.706;23.328;2023-02-28T05:52:53;0.60;;;0.60;;
10839;SDS011;5473;42.706;23.328;2023-02-28T05:55:20;0.60;;;0.60;;
10839;SDS011;5473;42.706;23.328;2023-02-28T05:57:47;0.60;;;0.60;;
10839;SDS011;5473;42.706;23.328;2023-02-28T06:00:13;0.53;;;0.53;;
10839;SDS011;5473;42.706;23.328;2023-02-28T06:02:42;0.60;;;0.60;;
10839;SDS011;5473;42.706;23.328;2023-02-28T06:05:10;0.60;;;0.60;;
10839;SDS011;5473;42.706;23.328;2023-02-28T06:07:41;0.60;;;0.60;;
10839;SDS011;5473;42.706;23.328;2023-02-28T06:10:08;0.60;;;0.60;;
10839;SDS011;5473;42.706;23.328;2023-02-28T06:12:36;0.50;;;0.50;;
10839;SDS011;5473;42.706;23.328;2023-02-28T06:15:03;0.50;;;0.50;;
10839;SDS011;5473;42.706;23.328;2023-02-28T06:17:31;0.60;;;0.60;;
10839;SDS011;5473;42.706;23.328;2023-02-28T06:19:57;0.53;;;0.53;;
10839;SDS011;5473;42.706;23.328;2023-02-28T06:22:24;0.60;;;0.60;;
10839;SDS011;5473;42.706;23.328;2023-02-28T06:24:52;0.60;;;0.60;;
10839;SDS011;5473;42.706;23.328;2023-02-28T06:27:19;0.60;;;0.60;;
10839;SDS011;5473;42.706;23.328;2023-02-28T06:29:47;0.60;;;0.60;;
10839;SDS011;5473;42.706;23.328;2023-02-28T06:32:13;0.60;;;0.60;;
10839;SDS011;5473;42.706;23.328;2023-02-28T06:34:40;0.53;;;0.53;;
10839;SDS011;5473;42.706;23.328;2023-02-28T06:37:07;0.50;;;0.50;;
10839;SDS011;5473;42.706;23.328;2023-02-28T06:39:34;0.50;;;0.50;;
10839;SDS011;5473;42.706;23.328;2023-02-28T06:42:02;0.40;;;0.40;;
10839;SDS011;5473;42.706;23.328;2023-02-28T06:44:29;0.60;;;0.60;;
10839;SDS011;5473;42.706;23.328;2023-02-28T06:47:00;0.60;;;0.60;;
10839;SDS011;5473;42.706;23.328;2023-02-28T06:49:28;0.50;;;0.50;;
10839;SDS011;5473;42.706;23.328;2023-02-28T06:51:55;0.60;;;0.60;;
10839;SDS011;5473;42.706;23.328;2023-02-28T06:54:22;0.60;;;0.60;;
10839;SDS011;5473;42.706;23.328;2023-02-28T06:56:48;0.60;;;0.60;;
10839;SDS011;5473;42.706;23.328;2023-02-28T06:59:16;0.60;;;0.60;;
10839;SDS011;5473;42.706;23.328;2023-02-28T07:01:43;0.60;;;0.60;;
10839;SDS011;5473;42.706;23.328;2023-02-28T07:04:10;0.60;;;0.60;;
10839;SDS011;5473;42.706;23.328;2023-02-28T07:06:38;0.50;;;0.50;;
10839;SDS011;5473;42.706;23.328;2023-02-28T07:09:05;0.50;;;0.50;;
10839;SDS011;5473;42.706;23.328;2023-02-28T07:11:32;0.60;;;0.60;;
10839;SDS011;5473;42.706;23.328;2023-02-28T07:13:59;0.60;;;0.60;;
10839;SDS011;5473;42.706;23.328;2023-02-28T07:16:27;0.60;;;0.60;;
10839;SDS011;5473;42.706;23.328;2023-02-28T07:18:54;0.50;;;0.50;;
10839;SDS011;5473;42.706;23.328;2023-02-28T07:21:21;0.50;;;0.50;;
10839;SDS011;5473;42.706;23.328;2023-02-28T07:23:48;0.60;;;0.60;;
10839;SDS011;5473;42.706;23.328;2023-02-28T07:26:16;0.60;;;0.60;;
10839;SDS011;5473;42.706;23.328;2023-02-28T07:28:45;0.57;;;0.57;;
10839;SDS011;5473;42.706;23.328;2023-02-28T07:31:14;0.60;;;0.60;;
10839;SDS011;5473;42.706;23.328;2023-02-28T07:33:43;0.60;;;0.60;;
10839;SDS011;5473;42.706;23.328;2023-02-28T07:36:11;0.60;;;0.60;;
10839;SDS011;5473;42.706;23.328;2023-02-28T07:38:40;0.60;;;0.60;;
10839;SDS011;5473;42.706;23.328;2023-02-28T07:41:07;0.40;;;0.40;;
10839;SDS011;5473;42.706;23.328;2023-02-28T07:43:34;0.40;;;0.40;;
10839;SDS011;5473;42.706;23.328;2023-02-28T07:46:02;0.60;;;0.60;;
10839;SDS011;5473;42.706;23.328;2023-02-28T07:48:30;0.60;;;0.60;;
10839;SDS011;5473;42.706;23.328;2023-02-28T07:50:58;0.50;;;0.50;;
10839;SDS011;5473;42.706;23.328;2023-02-28T07:53:25;0.50;;;0.50;;
10839;SDS011;5473;42.706;23.328;2023-02-28T07:55:54;0.60;;;0.60;;
10839;SDS011;5473;42.706;23.328;2023-02-28T07:58:21;0.50;;;0.50;;
10839;SDS011;5473;42.706;23.328;2023-02-28T08:00:48;0.50;;;0.50;;
10839;SDS011;5473;42.706;23.328;2023-02-28T08:03:17;0.50;;;0.50;;
10839;SDS011;5473;42.706;23.328;2023-02-28T08:05:44;0.50;;;0.50;;
10839;SDS011;5473;42.706;23.328;2023-02-28T08:08:12;0.50;;;0.50;;
10839;SDS011;5473;42.706;23.328;2023-02-28T08:10:39;0.50;;;0.50;;
10839;SDS011;5473;42.706;23.328;2023-02-28T08:13:06;0.40;;;0.40;;
10839;SDS011;5473;42.706;23.328;2023-02-28T08:15:33;0.50;;;0.50;;
10839;SDS011;5473;42.706;23.328;2023-02-28T08:18:01;0.50;;;0.50;;
10839;SDS011;5473;42.706;23.328;2023-02-28T08:20:28;0.40;;;0.40;;
10839;SDS011;5473;42.706;23.328;2023-02-28T08:22:55;0.40;;;0.40;;
10839;SDS011;5473;42.706;23.328;2023-02-28T08:25:23;0.40;;;0.40;;
10839;SDS011;5473;42.706;23.328;2023-02-28T08:27:50;0.40;;;0.40;;
10839;SDS011;5473;42.706;23.328;2023-02-28T08:30:18;0.40;;;0.40;;
10839;SDS011;5473;42.706;23.328;2023-02-28T08:32:45;0.40;;;0.40;;
10839;SDS011;5473;42.706;23.328;2023-02-28T08:35:12;0.40;;;0.40;;
10839;SDS011;5473;42.706;23.328;2023-02-28T08:37:38;0.40;;;0.40;;
10839;SDS011;5473;42.706;23.328;2023-02-28T08:40:06;0.40;;;0.40;;
10839;SDS011;5473;42.706;23.328;2023-02-28T08:42:35;0.40;;;0.40;;
10839;SDS011;5473;42.706;23.328;2023-02-28T08:45:02;0.40;;;0.40;;
10839;SDS011;5473;42.706;23.328;2023-02-28T08:47:29;0.40;;;0.40;;
10839;SDS011;5473;42.706;23.328;2023-02-28T08:49:56;0.30;;;0.30;;
10839;SDS011;5473;42.706;23.328;2023-02-28T08:52:22;0.40;;;0.40;;
10839;SDS011;5473;42.706;23.328;2023-02-28T08:54:49;0.40;;;0.40;;
10839;SDS011;5473;42.706;23.328;2023-02-28T08:57:16;0.50;;;0.50;;
10839;SDS011;5473;42.706;23.328;2023-02-28T08:59:44;0.40;;;0.40;;
10839;SDS011;5473;42.706;23.328;2023-02-28T09:02:12;0.40;;;0.40;;
10839;SDS011;5473;42.706;23.328;2023-02-28T09:04:40;0.50;;;0.50;;
10839;SDS011;5473;42.706;23.328;2023-02-28T09:07:10;0.30;;;0.30;;
10839;SDS011;5473;42.706;23.328;2023-02-28T09:09:39;0.40;;;0.40;;
10839;SDS011;5473;42.706;23.328;2023-02-28T09:12:20;0.40;;;0.40;;
10839;SDS011;5473;42.706;23.328;2023-02-28T09:14:49;0.40;;;0.40;;
10839;SDS011;5473;42.706;23.328;2023-02-28T09:17:15;0.33;;;0.33;;
10839;SDS011;5473;42.706;23.328;2023-02-28T09:19:43;0.40;;;0.40;;
10839;SDS011;5473;42.706;23.328;2023-02-28T09:22:10;0.40;;;0.40;;
10839;SDS011;5473;42.706;23.328;2023-02-28T09:24:37;0.40;;;0.40;;
10839;SDS011;5473;42.706;23.328;2023-02-28T09:27:04;0.40;;;0.40;;
10839;SDS011;5473;42.706;23.328;2023-02-28T09:29:32;0.40;;;0.40;;
10839;SDS011;5473;42.706;23.328;2023-02-28T09:32:01;0.40;;;0.40;;
10839;SDS011;5473;42.706;23.328;2023-02-28T09:34:30;0.40;;;0.40;;
10839;SDS011;5473;42.706;23.328;2023-02-28T09:36:57;0.40;;;0.40;;
10839;SDS011;5473;42.706;23.328;2023-02-28T09:39:24;0.40;;;0.40;;
10839;SDS011;5473;42.706;23.328;2023-02-28T09:41:52;0.40;;;0.40;;
10839;SDS011;5473;42.706;23.328;2023-02-28T09:44:20;0.30;;;0.30;;
10839;SDS011;5473;42.706;23.328;2023-02-28T09:46:55;0.40;;;0.40;;
10839;SDS011;5473;42.706;23.328;2023-02-28T09:49:28;0.40;;;0.40;;
10839;SDS011;5473;42.706;23.328;2023-02-28T09:52:02;0.40;;;0.40;;
10839;SDS011;5473;42.706;23.328;2023-02-28T09:54:30;0.30;;;0.30;;
10839;SDS011;5473;42.706;23.328;2023-02-28T09:56:59;0.30;;;0.30;;
10839;SDS011;5473;42.706;23.328;2023-02-28T09:59:41;0.30;;;0.30;;
10839;SDS011;5473;42.706;23.328;2023-02-28T10:02:34;0.30;;;0.30;;
10839;SDS011;5473;42.706;23.328;2023-02-28T10:05:14;0.30;;;0.30;;
10839;SDS011;5473;42.706;23.328;2023-02-28T10:07:49;0.40;;;0.40;;
10839;SDS011;5473;42.706;23.328;2023-02-28T10:10:34;0.30;;;0.30;;
10839;SDS011;5473;42.706;23.328;2023-02-28T10:13:06;0.30;;;0.30;;
10839;SDS011;5473;42.706;23.328;2023-02-28T10:15:38;0.30;;;0.30;;
10839;SDS011;5473;42.706;23.328;2023-02-28T10:18:08;0.37;;;0.37;;
10839;SDS011;5473;42.706;23.328;2023-02-28T10:20:41;0.40;;;0.40;;
10839;SDS011;5473;42.706;23.328;2023-02-28T10:23:11;0.40;;;0.40;;
10839;SDS011;5473;42.706;23.328;2023-02-28T10:25:44;0.40;;;0.40;;
10839;SDS011;5473;42.706;23.328;2023-02-28T10:28:14;0.40;;;0.40;;
10839;SDS011;5473;42.706;23.328;2023-02-28T10:30:43;0.40;;;0.40;;
10839;SDS011;5473;42.706;23.328;2023-02-28T10:33:15;0.40;;;0.40;;
10839;SDS011;5473;42.706;23.328;2023-02-28T10:35:47;0.40;;;0.40;;
10839;SDS011;5473;42.706;23.328;2023-02-28T10:38:18;0.30;;;0.30;;
10839;SDS011;5473;42.706;23.328;2023-02-28T10:40:46;0.40;;;0.40;;
10839;SDS011;5473;42.706;23.328;2023-02-28T10:43:20;0.37;;;0.37;;
10839;SDS011;5473;42.706;23.328;2023-02-28T10:45:53;0.30;;;0.30;;
10839;SDS011;5473;42.706;23.328;2023-02-28T10:48:30;0.40;;;0.40;;
10839;SDS011;5473;42.706;23.328;2023-02-28T10:51:01;0.30;;;0.30;;
10839;SDS011;5473;42.706;23.328;2023-02-28T10:53:31;0.30;;;0.30;;
10839;SDS011;5473;42.706;23.328;2023-02-28T10:56:01;0.27;;;0.27;;
10839;SDS011;5473;42.706;23.328;2023-02-28T10:58:30;0.30;;;0.30;;
10839;SDS011;5473;42.706;23.328;2023-02-28T11:00:58;0.30;;;0.30;;
10839;SDS011;5473;42.706;23.328;2023-02-28T11:03:29;0.30;;;0.30;;
10839;SDS011;5473;42.706;23.328;2023-02-28T11:05:58;0.40;;;0.40;;
10839;SDS011;5473;42.706;23.328;2023-02-28T11:08:26;0.37;;;0.37;;
10839;SDS011;5473;42.706;23.328;2023-02-28T11:10:54;0.30;;;0.30;;
10839;SDS011;5473;42.706;23.328;2023-02-28T11:13:24;0.30;;;0.30;;
10839;SDS011;5473;42.706;23.328;2023-02-28T11:15:54;0.30;;;0.30;;
10839;SDS011;5473;42.706;23.328;2023-02-28T11:18:23;0.30;;;0.30;;
10839;SDS011;5473;42.706;23.328;2023-02-28T11:20:54;0.30;;;0.30;;
10839;SDS011;5473;42.706;23.328;2023-02-28T11:23:24;0.30;;;0.30;;
10839;SDS011;5473;42.706;23.328;2023-02-28T11:25:55;0.30;;;0.30;;
10839;SDS011;5473;42.706;23.328;2023-02-28T11:28:27;0.40;;;0.40;;
10839;SDS011;5473;42.706;23.328;2023-02-28T11:31:00;0.30;;;0.30;;
10839;SDS011;5473;42.706;23.328;2023-02-28T11:33:29;0.30;;;0.30;;
10839;SDS011;5473;42.706;23.328;2023-02-28T11:35:58;0.30;;;0.30;;
10839;SDS011;5473;42.706;23.328;2023-02-28T11:38:29;0.40;;;0.40;;
10839;SDS011;5473;42.706;23.328;2023-02-28T11:41:08;0.30;;;0.30;;
10839;SDS011;5473;42.706;23.328;2023-02-28T11:44:01;0.30;;;0.30;;
10839;SDS011;5473;42.706;23.328;2023-02-28T11:46:37;0.40;;;0.40;;
10839;SDS011;5473;42.706;23.328;2023-02-28T11:49:14;0.40;;;0.40;;
10839;SDS011;5473;42.706;23.328;2023-02-28T11:51:51;0.40;;;0.40;;
10839;SDS011;5473;42.706;23.328;2023-02-28T11:54:30;0.40;;;0.40;;
10839;SDS011;5473;42.706;23.328;2023-02-28T11:57:11;0.30;;;0.30;;
10839;SDS011;5473;42.706;23.328;2023-02-28T11:59:52;0.40;;;0.40;;
10839;SDS011;5473;42.706;23.328;2023-02-28T12:02:28;0.40;;;0.40;;
10839;SDS011;5473;42.706;23.328;2023-02-28T12:05:08;0.40;;;0.40;;
10839;SDS011;5473;42.706;23.328;2023-02-28T12:07:51;0.40;;;0.40;;
10839;SDS011;5473;42.706;23.328;2023-02-28T12:10:27;0.40;;;0.40;;
10839;SDS011;5473;42.706;23.328;2023-02-28T12:13:02;0.40;;;0.40;;
10839;SDS011;5473;42.706;23.328;2023-02-28T12:15:45;0.40;;;0.40;;
10839;SDS011;5473;42.706;23.328;2023-02-28T12:18:33;0.40;;;0.40;;
10839;SDS011;5473;42.706;23.328;2023-02-28T12:21:14;0.40;;;0.40;;
10839;SDS011;5473;42.706;23.328;2023-02-28T12:23:55;0.40;;;0.40;;
10839;SDS011;5473;42.706;23.328;2023-02-28T12:26:35;0.40;;;0.40;;
10839;SDS011;5473;42.706;23.328;2023-02-28T12:29:09;0.30;;;0.30;;
10839;SDS011;5473;42.706;23.328;2023-02-28T12:31:44;0.30;;;0.30;;
10839;SDS011;5473;42.706;23.328;2023-02-28T12:34:15;0.30;;;0.30;;
10839;SDS011;5473;42.706;23.328;2023-02-28T12:36:45;0.30;;;0.30;;
10839;SDS011;5473;42.706;23.328;2023-02-28T12:39:15;0.40;;;0.40;;
10839;SDS011;5473;42.706;23.328;2023-02-28T12:41:47;0.40;;;0.40;;
10839;SDS011;5473;42.706;23.328;2023-02-28T12:44:19;0.40;;;0.40;;
10839;SDS011;5473;42.706;23.328;2023-02-28T12:46:55;0.40;;;0.40;;
10839;SDS011;5473;42.706;23.328;2023-02-28T12:49:27;0.40;;;0.40;;
10839;SDS011;5473;42.706;23.328;2023-02-28T12:51:57;0.40;;;0.40;;
10839;SDS011;5473;42.706;23.328;2023-02-28T12:54:28;0.40;;;0.40;;
10839;SDS011;5473;42.706;23.328;2023-02-28T12:57:01;0.40;;;0.40;;
10839;SDS011;5473;42.706;23.328;2023-02-28T12:59:37;0.30;;;0.30;;
10839;SDS011;5473;42.706;23.328;2023-02-28T13:02:28;0.30;;;0.30;;
10839;SDS011;5473;42.706;23.328;2023-02-28T13:05:18;0.47;;;0.47;;
10839;SDS011;5473;42.706;23.328;2023-02-28T13:08:03;0.30;;;0.30;;
10839;SDS011;5473;42.706;23.328;2023-02-28T13:10:48;0.40;;;0.40;;
10839;SDS011;5473;42.706;23.328;2023-02-28T13:13:21;0.40;;;0.40;;
10839;SDS011;5473;42.706;23.328;2023-02-28T13:15:57;0.40;;;0.40;;
10839;SDS011;5473;42.706;23.328;2023-02-28T13:18:33;0.40;;;0.40;;
10839;SDS011;5473;42.706;23.328;2023-02-28T13:21:04;0.33;;;0.33;;
10839;SDS011;5473;42.706;23.328;2023-02-28T13:23:36;0.40;;;0.40;;
10839;SDS011;5473;42.706;23.328;2023-02-28T13:26:05;0.40;;;0.40;;
10839;SDS011;5473;42.706;23.328;2023-02-28T13:31:25;0.40;;;0.40;;
10839;SDS011;5473;42.706;23.328;2023-02-28T13:34:05;0.40;;;0.40;;
10839;SDS011;5473;42.706;23.328;2023-02-28T13:36:39;0.40;;;0.40;;
10839;SDS011;5473;42.706;23.328;2023-02-28T13:47:56;0.30;;;0.30;;
10839;SDS011;5473;42.706;23.328;2023-02-28T13:50:30;0.40;;;0.40;;
10839;SDS011;5473;42.706;23.328;2023-02-28T13:56:09;0.40;;;0.40;;
10839;SDS011;5473;42.706;23.328;2023-02-28T13:58:50;0.40;;;0.40;;
10839;SDS011;5473;42.706;23.328;2023-02-28T14:01:34;0.40;;;0.40;;
10839;SDS011;5473;42.706;23.328;2023-02-28T14:04:14;0.40;;;0.40;;
10839;SDS011;5473;42.706;23.328;2023-02-28T14:07:03;0.50;;;0.50;;
10839;SDS011;5473;42.706;23.328;2023-02-28T14:09:31;0.40;;;0.40;;
10839;SDS011;5473;42.706;23.328;2023-02-28T14:14:59;0.40;;;0.40;;
10839;SDS011;5473;42.706;23.328;2023-02-28T14:17:27;0.40;;;0.40;;
10839;SDS011;5473;42.706;23.328;2023-02-28T14:19:54;0.40;;;0.40;;
10839;SDS011;5473;42.706;23.328;2023-02-28T14:22:39;0.50;;;0.50;;
10839;SDS011;5473;42.706;23.328;2023-02-28T14:25:19;0.40;;;0.40;;
10839;SDS011;5473;42.706;23.328;2023-02-28T14:27:50;0.43;;;0.43;;
10839;SDS011;5473;42.706;23.328;2023-02-28T14:30:42;0.50;;;0.50;;
10839;SDS011;5473;42.706;23.328;2023-02-28T14:33:22;0.43;;;0.43;;
10839;SDS011;5473;42.706;23.328;2023-02-28T14:36:12;0.50;;;0.50;;
10839;SDS011;5473;42.706;23.328;2023-02-28T14:38:45;0.50;;;0.50;;
10839;SDS011;5473;42.706;23.328;2023-02-28T14:41:18;0.50;;;0.50;;
10839;SDS011;5473;42.706;23.328;2023-02-28T14:43:51;0.50;;;0.50;;
10839;SDS011;5473;42.706;23.328;2023-02-28T14:46:20;0.50;;;0.50;;
10839;SDS011;5473;42.706;23.328;2023-02-28T14:48:50;0.40;;;0.40;;
10839;SDS011;5473;42.706;23.328;2023-02-28T14:51:18;0.50;;;0.50;;
10839;SDS011;5473;42.706;23.328;2023-02-28T14:53:47;0.47;;;0.47;;
10839;SDS011;5473;42.706;23.328;2023-02-28T14:56:21;0.40;;;0.40;;
10839;SDS011;5473;42.706;23.328;2023-02-28T14:58:53;0.50;;;0.50;;
10839;SDS011;5473;42.706;23.328;2023-02-28T15:01:22;0.40;;;0.40;;
10839;SDS011;5473;42.706;23.328;2023-02-28T15:03:58;0.40;;;0.40;;
10839;SDS011;5473;42.706;23.328;2023-02-28T15:06:27;0.50;;;0.50;;
10839;SDS011;5473;42.706;23.328;2023-02-28T15:09:08;0.50;;;0.50;;
10839;SDS011;5473;42.706;23.328;2023-02-28T15:11:37;0.50;;;0.50;;
10839;SDS011;5473;42.706;23.328;2023-02-28T15:14:05;0.50;;;0.50;;
10839;SDS011;5473;42.706;23.328;2023-02-28T15:16:33;0.60;;;0.60;;
10839;SDS011;5473;42.706;23.328;2023-02-28T15:19:06;0.50;;;0.50;;
10839;SDS011;5473;42.706;23.328;2023-02-28T15:21:41;0.50;;;0.50;;
10839;SDS011;5473;42.706;23.328;2023-02-28T15:24:10;0.60;;;0.60;;
10839;SDS011;5473;42.706;23.328;2023-02-28T15:26:49;0.50;;;0.50;;
10839;SDS011;5473;42.706;23.328;2023-02-28T15:29:20;0.60;;;0.60;;
10839;SDS011;5473;42.706;23.328;2023-02-28T15:31:50;0.50;;;0.50;;
10839;SDS011;5473;42.706;23.328;2023-02-28T15:34:27;0.50;;;0.50;;
10839;SDS011;5473;42.706;23.328;2023-02-28T15:37:00;0.60;;;0.60;;